sensor_id;sensor_type;location;lat;lon;timestamp;pressure;altitude;pressure_sealevel;temperature;humidity
69749;BME280;57019;52.354;6.584;2022-12-10T00:01:16;100767.25;;;18.80;38.69
69749;BME280;57019;52.354;6.584;2022-12-10T00:03:42;100769.59;;;18.75;38.60
69749;BME280;57019;52.354;6.584;2022-12-10T00:06:11;100769.59;;;18.75;38.56
69749;BME280;57019;52.354;6.584;2022-12-10T00:08:37;100768.97;;;18.73;38.54
69749;BME280;57019;52.354;6.584;2022-12-10T00:11:04;100767.13;;;18.74;38.37
69749;BME280;57019;52.354;6.584;2022-12-10T00:13:30;100769.94;;;18.72;38.42
69749;BME280;57019;52.354;6.584;2022-12-10T00:15:55;100768.34;;;18.71;38.06
69749;BME280;57019;52.354;6.584;2022-12-10T00:18:23;100768.66;;;18.68;38.26
69749;BME280;57019;52.354;6.584;2022-12-10T00:20:49;100763.78;;;18.65;38.21
69749;BME280;57019;52.354;6.584;2022-12-10T00:23:14;100762.13;;;18.64;38.34
69749;BME280;57019;52.354;6.584;2022-12-10T00:25:39;100766.09;;;18.60;38.08
69749;BME280;57019;52.354;6.584;2022-12-10T00:28:05;100764.13;;;18.62;38.22
69749;BME280;57019;52.354;6.584;2022-12-10T00:30:30;100764.63;;;18.57;37.84
69749;BME280;57019;52.354;6.584;2022-12-10T00:32:55;100757.13;;;18.54;38.01
69749;BME280;57019;52.354;6.584;2022-12-10T00:35:21;100770.69;;;18.58;37.98
69749;BME280;57019;52.354;6.584;2022-12-10T00:37:46;100761.22;;;18.57;37.81
69749;BME280;57019;52.354;6.584;2022-12-10T00:40:11;100771.66;;;18.57;37.76
69749;BME280;57019;52.354;6.584;2022-12-10T00:42:37;100773.19;;;18.51;37.73
69749;BME280;57019;52.354;6.584;2022-12-10T00:45:03;100766.50;;;18.48;37.56
69749;BME280;57019;52.354;6.584;2022-12-10T00:47:29;100757.38;;;18.44;37.86
69749;BME280;57019;52.354;6.584;2022-12-10T00:49:54;100765.88;;;18.46;37.60
69749;BME280;57019;52.354;6.584;2022-12-10T00:52:19;100764.59;;;18.42;37.63
69749;BME280;57019;52.354;6.584;2022-12-10T00:54:45;100764.59;;;18.42;37.64
69749;BME280;57019;52.354;6.584;2022-12-10T00:57:10;100772.75;;;18.39;37.64
69749;BME280;57019;52.354;6.584;2022-12-10T00:59:35;100766.53;;;18.40;37.42
69749;BME280;57019;52.354;6.584;2022-12-10T01:02:00;100775.72;;;18.36;37.32
69749;BME280;57019;52.354;6.584;2022-12-10T01:04:26;100779.66;;;18.32;37.27
69749;BME280;57019;52.354;6.584;2022-12-10T01:06:53;100776.41;;;18.30;37.41
69749;BME280;57019;52.354;6.584;2022-12-10T01:09:21;100777.22;;;18.30;37.33
69749;BME280;57019;52.354;6.584;2022-12-10T01:11:48;100778.34;;;18.28;37.22
69749;BME280;57019;52.354;6.584;2022-12-10T01:14:16;100780.34;;;18.26;37.38
69749;BME280;57019;52.354;6.584;2022-12-10T01:16:43;100780.66;;;18.23;37.31
69749;BME280;57019;52.354;6.584;2022-12-10T01:19:08;100783.44;;;18.21;37.23
69749;BME280;57019;52.354;6.584;2022-12-10T01:21:34;100786.25;;;18.20;37.23
69749;BME280;57019;52.354;6.584;2022-12-10T01:24:00;100792.28;;;18.20;37.34
69749;BME280;57019;52.354;6.584;2022-12-10T01:26:29;100789.66;;;18.20;37.11
69749;BME280;57019;52.354;6.584;2022-12-10T01:28:55;100796.88;;;18.18;37.14
69749;BME280;57019;52.354;6.584;2022-12-10T01:33:49;100800.63;;;18.16;37.06
69749;BME280;57019;52.354;6.584;2022-12-10T01:36:25;100804.56;;;18.11;36.88
69749;BME280;57019;52.354;6.584;2022-12-10T01:38:51;100810.75;;;18.10;37.08
69749;BME280;57019;52.354;6.584;2022-12-10T01:41:23;100809.63;;;18.13;36.97
69749;BME280;57019;52.354;6.584;2022-12-10T01:46:14;100810.13;;;18.08;37.03
69749;BME280;57019;52.354;6.584;2022-12-10T01:48:40;100810.31;;;18.07;36.94
69749;BME280;57019;52.354;6.584;2022-12-10T01:51:06;100808.84;;;18.04;37.06
69749;BME280;57019;52.354;6.584;2022-12-10T01:53:32;100814.41;;;18.01;37.01
69749;BME280;57019;52.354;6.584;2022-12-10T01:55:58;100818.47;;;18.04;36.88
69749;BME280;57019;52.354;6.584;2022-12-10T01:58:23;100809.81;;;18.03;36.86
69749;BME280;57019;52.354;6.584;2022-12-10T02:03:41;100810.78;;;18.02;36.82
69749;BME280;57019;52.354;6.584;2022-12-10T02:06:16;100817.31;;;18.06;36.47
69749;BME280;57019;52.354;6.584;2022-12-10T02:09:11;100816.34;;;17.99;36.75
69749;BME280;57019;52.354;6.584;2022-12-10T02:14:41;100811.47;;;17.96;36.74
69749;BME280;57019;52.354;6.584;2022-12-10T02:17:16;100811.13;;;17.91;36.49
69749;BME280;57019;52.354;6.584;2022-12-10T02:22:22;100815.41;;;17.92;36.60
69749;BME280;57019;52.354;6.584;2022-12-10T02:24:51;100814.56;;;17.91;36.57
69749;BME280;57019;52.354;6.584;2022-12-10T02:30:11;100794.50;;;17.92;36.54
69749;BME280;57019;52.354;6.584;2022-12-10T02:32:38;100795.44;;;17.91;36.44
69749;BME280;57019;52.354;6.584;2022-12-10T02:35:11;100794.81;;;17.89;36.47
69749;BME280;57019;52.354;6.584;2022-12-10T02:37:59;100794.66;;;17.90;36.40
69749;BME280;57019;52.354;6.584;2022-12-10T02:40:31;100791.53;;;17.87;36.43
69749;BME280;57019;52.354;6.584;2022-12-10T02:42:57;100788.94;;;17.87;36.42
69749;BME280;57019;52.354;6.584;2022-12-10T02:45:25;100787.31;;;17.86;36.36
69749;BME280;57019;52.354;6.584;2022-12-10T02:47:56;100799.06;;;17.81;36.39
69749;BME280;57019;52.354;6.584;2022-12-10T02:50:23;100801.69;;;17.81;36.33
69749;BME280;57019;52.354;6.584;2022-12-10T02:52:48;100802.69;;;17.80;36.30
69749;BME280;57019;52.354;6.584;2022-12-10T02:55:14;100798.44;;;17.79;36.28
69749;BME280;57019;52.354;6.584;2022-12-10T03:00:19;100793.03;;;17.81;36.21
69749;BME280;57019;52.354;6.584;2022-12-10T03:03:07;100803.81;;;17.78;36.21
69749;BME280;57019;52.354;6.584;2022-12-10T03:06:05;100796.16;;;17.76;36.05
69749;BME280;57019;52.354;6.584;2022-12-10T03:11:23;100803.31;;;17.74;36.17
69749;BME280;57019;52.354;6.584;2022-12-10T03:14:20;100798.91;;;17.75;36.34
69749;BME280;57019;52.354;6.584;2022-12-10T03:16:56;100795.50;;;17.74;36.17
69749;BME280;57019;52.354;6.584;2022-12-10T03:19:25;100794.53;;;17.67;36.23
69749;BME280;57019;52.354;6.584;2022-12-10T03:21:52;100786.38;;;17.70;36.16
69749;BME280;57019;52.354;6.584;2022-12-10T03:24:19;100797.16;;;17.67;36.30
69749;BME280;57019;52.354;6.584;2022-12-10T03:26:48;100791.09;;;17.67;36.17
69749;BME280;57019;52.354;6.584;2022-12-10T03:29:34;100786.72;;;17.67;36.16
69749;BME280;57019;52.354;6.584;2022-12-10T03:32:01;100782.63;;;17.64;36.16
69749;BME280;57019;52.354;6.584;2022-12-10T03:34:27;100777.56;;;17.63;36.08
69749;BME280;57019;52.354;6.584;2022-12-10T03:36:53;100783.78;;;17.62;36.02
69749;BME280;57019;52.354;6.584;2022-12-10T03:39:19;100781.16;;;17.62;36.07
69749;BME280;57019;52.354;6.584;2022-12-10T03:41:44;100785.75;;;17.60;36.11
69749;BME280;57019;52.354;6.584;2022-12-10T03:44:10;100782.47;;;17.58;36.16
69749;BME280;57019;52.354;6.584;2022-12-10T03:46:35;100789.66;;;17.56;36.13
69749;BME280;57019;52.354;6.584;2022-12-10T03:49:01;100793.09;;;17.56;36.02
69749;BME280;57019;52.354;6.584;2022-12-10T03:51:27;100791.28;;;17.57;36.01
69749;BME280;57019;52.354;6.584;2022-12-10T03:53:52;100798.31;;;17.56;36.05
69749;BME280;57019;52.354;6.584;2022-12-10T03:56:18;100793.41;;;17.53;35.94
69749;BME280;57019;52.354;6.584;2022-12-10T03:58:44;100792.75;;;17.51;35.99
69749;BME280;57019;52.354;6.584;2022-12-10T04:01:09;100792.75;;;17.51;35.97
69749;BME280;57019;52.354;6.584;2022-12-10T04:03:36;100795.53;;;17.50;36.10
69749;BME280;57019;52.354;6.584;2022-12-10T04:06:07;100791.47;;;17.47;35.96
69749;BME280;57019;52.354;6.584;2022-12-10T04:08:33;100795.03;;;17.46;35.98
69749;BME280;57019;52.354;6.584;2022-12-10T04:11:03;100788.22;;;17.45;35.99
69749;BME280;57019;52.354;6.584;2022-12-10T04:13:33;100797.81;;;17.44;35.88
69749;BME280;57019;52.354;6.584;2022-12-10T04:16:18;100798.81;;;17.43;36.00
69749;BME280;57019;52.354;6.584;2022-12-10T04:18:54;100799.78;;;17.42;35.88
69749;BME280;57019;52.354;6.584;2022-12-10T04:21:20;100798.50;;;17.38;35.98
69749;BME280;57019;52.354;6.584;2022-12-10T04:24:04;100798.66;;;17.37;35.93
69749;BME280;57019;52.354;6.584;2022-12-10T04:26:49;100803.53;;;17.40;35.97
69749;BME280;57019;52.354;6.584;2022-12-10T04:29:18;100800.44;;;17.36;35.94
69749;BME280;57019;52.354;6.584;2022-12-10T04:31:43;100804.03;;;17.35;35.89
69749;BME280;57019;52.354;6.584;2022-12-10T04:34:08;100803.22;;;17.35;35.95
69749;BME280;57019;52.354;6.584;2022-12-10T04:36:34;100804.03;;;17.35;35.82
69749;BME280;57019;52.354;6.584;2022-12-10T04:38:59;100804.34;;;17.32;35.74
69749;BME280;57019;52.354;6.584;2022-12-10T04:41:24;100796.53;;;17.32;35.78
69749;BME280;57019;52.354;6.584;2022-12-10T04:43:50;100799.13;;;17.32;35.81
69749;BME280;57019;52.354;6.584;2022-12-10T04:46:16;100806.66;;;17.27;35.75
69749;BME280;57019;52.354;6.584;2022-12-10T04:48:42;100799.81;;;17.26;35.75
69749;BME280;57019;52.354;6.584;2022-12-10T04:51:07;100800.59;;;17.26;35.75
69749;BME280;57019;52.354;6.584;2022-12-10T04:53:32;100802.56;;;17.24;35.79
69749;BME280;57019;52.354;6.584;2022-12-10T04:55:58;100812.19;;;17.24;35.71
69749;BME280;57019;52.354;6.584;2022-12-10T04:58:23;100806.00;;;17.25;35.68
69749;BME280;57019;52.354;6.584;2022-12-10T05:00:48;100807.78;;;17.24;35.65
69749;BME280;57019;52.354;6.584;2022-12-10T05:03:14;100809.91;;;17.21;35.82
69749;BME280;57019;52.354;6.584;2022-12-10T05:05:39;100806.66;;;17.19;35.69
69749;BME280;57019;52.354;6.584;2022-12-10T05:08:07;100804.03;;;17.19;35.79
69749;BME280;57019;52.354;6.584;2022-12-10T05:10:34;100809.41;;;17.17;35.74
69749;BME280;57019;52.354;6.584;2022-12-10T05:13:00;100802.75;;;17.15;35.66
69749;BME280;57019;52.354;6.584;2022-12-10T05:15:25;100802.41;;;17.18;35.70
69749;BME280;57019;52.354;6.584;2022-12-10T05:17:50;100800.94;;;17.15;35.57
69749;BME280;57019;52.354;6.584;2022-12-10T05:20:16;100798.50;;;17.13;35.56
69749;BME280;57019;52.354;6.584;2022-12-10T05:22:41;100800.28;;;17.13;35.69
69749;BME280;57019;52.354;6.584;2022-12-10T05:25:25;100798.00;;;17.10;35.76
69749;BME280;57019;52.354;6.584;2022-12-10T05:27:50;100798.16;;;17.08;35.71
69749;BME280;57019;52.354;6.584;2022-12-10T05:30:16;100798.81;;;17.10;35.61
69749;BME280;57019;52.354;6.584;2022-12-10T05:32:41;100807.94;;;17.06;35.81
69749;BME280;57019;52.354;6.584;2022-12-10T05:35:07;100808.09;;;17.05;35.65
69749;BME280;57019;52.354;6.584;2022-12-10T05:37:32;100807.28;;;17.04;35.72
69749;BME280;57019;52.354;6.584;2022-12-10T05:39:59;100806.78;;;17.01;35.74
69749;BME280;57019;52.354;6.584;2022-12-10T05:42:24;100818.38;;;16.98;35.75
69749;BME280;57019;52.354;6.584;2022-12-10T05:44:49;100818.38;;;16.98;35.77
69749;BME280;57019;52.354;6.584;2022-12-10T05:47:15;100817.53;;;16.98;35.84
69749;BME280;57019;52.354;6.584;2022-12-10T05:49:40;100805.34;;;17.06;35.73
69749;BME280;57019;52.354;6.584;2022-12-10T05:52:05;100816.75;;;17.13;35.61
69749;BME280;57019;52.354;6.584;2022-12-10T05:54:31;100813.31;;;17.21;35.47
69749;BME280;57019;52.354;6.584;2022-12-10T05:56:56;100823.13;;;17.27;35.20
69749;BME280;57019;52.354;6.584;2022-12-10T05:59:22;100819.03;;;17.33;35.18
69749;BME280;57019;52.354;6.584;2022-12-10T06:01:47;100812.34;;;17.39;35.13
69749;BME280;57019;52.354;6.584;2022-12-10T06:04:13;100812.34;;;17.47;35.01
69749;BME280;57019;52.354;6.584;2022-12-10T06:06:39;100818.53;;;17.54;34.85
69749;BME280;57019;52.354;6.584;2022-12-10T06:09:06;100822.31;;;17.60;34.76
69749;BME280;57019;52.354;6.584;2022-12-10T06:11:32;100818.03;;;17.67;34.60
69749;BME280;57019;52.354;6.584;2022-12-10T06:13:58;100822.59;;;17.73;34.54
69749;BME280;57019;52.354;6.584;2022-12-10T06:16:25;100817.50;;;17.80;34.55
69749;BME280;57019;52.354;6.584;2022-12-10T06:18:51;100816.88;;;17.86;34.41
69749;BME280;57019;52.354;6.584;2022-12-10T06:21:17;100820.47;;;17.93;34.16
69749;BME280;57019;52.354;6.584;2022-12-10T06:23:43;100818.63;;;18.02;34.19
69749;BME280;57019;52.354;6.584;2022-12-10T06:26:15;100817.97;;;18.08;34.08
69749;BME280;57019;52.354;6.584;2022-12-10T06:28:41;100822.50;;;18.14;33.87
69749;BME280;57019;52.354;6.584;2022-12-10T06:31:06;100823.47;;;18.22;33.72
69749;BME280;57019;52.354;6.584;2022-12-10T06:33:32;100827.84;;;18.29;33.50
69749;BME280;57019;52.354;6.584;2022-12-10T06:35:58;100826.34;;;18.35;33.48
69749;BME280;57019;52.354;6.584;2022-12-10T06:38:23;100836.16;;;18.41;33.36
69749;BME280;57019;52.354;6.584;2022-12-10T06:40:49;100832.50;;;18.51;33.26
69749;BME280;57019;52.354;6.584;2022-12-10T06:43:14;100832.78;;;18.56;33.25
69749;BME280;57019;52.354;6.584;2022-12-10T06:45:41;100841.44;;;18.64;33.14
69749;BME280;57019;52.354;6.584;2022-12-10T06:48:06;100848.41;;;18.72;32.78
69749;BME280;57019;52.354;6.584;2022-12-10T06:50:32;100850.69;;;18.75;32.88
69749;BME280;57019;52.354;6.584;2022-12-10T06:52:57;100850.78;;;18.82;32.92
69749;BME280;57019;52.354;6.584;2022-12-10T06:55:22;100843.44;;;18.86;32.73
69749;BME280;57019;52.354;6.584;2022-12-10T06:57:52;100851.59;;;18.91;32.75
69749;BME280;57019;52.354;6.584;2022-12-10T07:00:18;100844.22;;;18.94;32.66
69749;BME280;57019;52.354;6.584;2022-12-10T07:02:52;100855.81;;;19.00;32.34
69749;BME280;57019;52.354;6.584;2022-12-10T07:05:18;100860.34;;;19.06;32.52
69749;BME280;57019;52.354;6.584;2022-12-10T07:07:43;100859.66;;;19.12;32.31
69749;BME280;57019;52.354;6.584;2022-12-10T07:10:09;100859.47;;;19.14;32.07
69749;BME280;57019;52.354;6.584;2022-12-10T07:12:35;100859.91;;;19.18;32.33
69749;BME280;57019;52.354;6.584;2022-12-10T07:15:00;100861.19;;;19.22;32.10
69749;BME280;57019;52.354;6.584;2022-12-10T07:17:25;100860.03;;;19.24;32.12
69749;BME280;57019;52.354;6.584;2022-12-10T07:19:51;100859.06;;;19.25;32.01
69749;BME280;57019;52.354;6.584;2022-12-10T07:22:16;100867.66;;;19.34;31.86
69749;BME280;57019;52.354;6.584;2022-12-10T07:24:42;100866.66;;;19.35;31.91
69749;BME280;57019;52.354;6.584;2022-12-10T07:27:08;100863.38;;;19.41;31.78
69749;BME280;57019;52.354;6.584;2022-12-10T07:29:34;100862.66;;;19.47;31.76
69749;BME280;57019;52.354;6.584;2022-12-10T07:31:59;100860.31;;;19.53;31.76
69749;BME280;57019;52.354;6.584;2022-12-10T07:34:25;100875.06;;;19.54;31.64
69749;BME280;57019;52.354;6.584;2022-12-10T07:36:50;100865.19;;;19.56;31.49
69749;BME280;57019;52.354;6.584;2022-12-10T07:39:15;100869.63;;;19.55;31.58
69749;BME280;57019;52.354;6.584;2022-12-10T07:41:47;100871.84;;;19.43;31.90
69749;BME280;57019;52.354;6.584;2022-12-10T07:44:13;100870.63;;;19.31;32.27
69749;BME280;57019;52.354;6.584;2022-12-10T07:46:38;100870.34;;;19.26;32.17
69749;BME280;57019;52.354;6.584;2022-12-10T07:49:04;100874.66;;;19.19;32.36
69749;BME280;57019;52.354;6.584;2022-12-10T07:51:29;100879.63;;;19.05;32.40
69749;BME280;57019;52.354;6.584;2022-12-10T07:53:55;100883.75;;;18.99;32.37
69749;BME280;57019;52.354;6.584;2022-12-10T07:56:21;100884.97;;;18.89;32.46
69749;BME280;57019;52.354;6.584;2022-12-10T07:58:47;100885.47;;;18.84;32.64
69749;BME280;57019;52.354;6.584;2022-12-10T08:01:18;100888.91;;;18.76;32.50
69749;BME280;57019;52.354;6.584;2022-12-10T08:03:44;100891.09;;;18.73;32.67
69749;BME280;57019;52.354;6.584;2022-12-10T08:06:13;100897.13;;;18.73;32.60
69749;BME280;57019;52.354;6.584;2022-12-10T08:08:40;100902.34;;;18.73;32.50
69749;BME280;57019;52.354;6.584;2022-12-10T08:11:06;100898.75;;;18.74;32.43
69749;BME280;57019;52.354;6.584;2022-12-10T08:13:33;100906.25;;;18.77;32.39
69749;BME280;57019;52.354;6.584;2022-12-10T08:16:11;100905.72;;;18.82;32.24
69749;BME280;57019;52.354;6.584;2022-12-10T08:18:38;100905.59;;;18.84;32.10
69749;BME280;57019;52.354;6.584;2022-12-10T08:21:09;100910.16;;;18.90;32.30
69749;BME280;57019;52.354;6.584;2022-12-10T08:23:35;100901.94;;;18.93;32.03
69749;BME280;57019;52.354;6.584;2022-12-10T08:26:05;100907.50;;;18.98;31.97
69749;BME280;57019;52.354;6.584;2022-12-10T08:28:31;100918.44;;;19.02;32.04
69749;BME280;57019;52.354;6.584;2022-12-10T08:30:57;100921.22;;;19.00;32.05
69749;BME280;57019;52.354;6.584;2022-12-10T08:33:22;100922.16;;;19.07;31.92
69749;BME280;57019;52.354;6.584;2022-12-10T08:35:47;100915.13;;;19.08;31.87
69749;BME280;57019;52.354;6.584;2022-12-10T08:38:13;100917.56;;;19.09;31.95
69749;BME280;57019;52.354;6.584;2022-12-10T08:40:40;100917.56;;;19.09;31.70
69749;BME280;57019;52.354;6.584;2022-12-10T08:43:05;100930.69;;;19.01;31.97
69749;BME280;57019;52.354;6.584;2022-12-10T08:45:31;100936.28;;;18.98;31.85
69749;BME280;57019;52.354;6.584;2022-12-10T08:47:56;100926.81;;;18.89;32.15
69749;BME280;57019;52.354;6.584;2022-12-10T08:50:21;100928.78;;;18.87;32.17
69749;BME280;57019;52.354;6.584;2022-12-10T08:52:47;100919.47;;;18.84;32.30
69749;BME280;57019;52.354;6.584;2022-12-10T08:55:12;100927.50;;;18.82;32.07
69749;BME280;57019;52.354;6.584;2022-12-10T08:57:37;100930.75;;;18.85;32.47
69749;BME280;57019;52.354;6.584;2022-12-10T09:00:03;100935.69;;;18.88;32.38
69749;BME280;57019;52.354;6.584;2022-12-10T09:02:29;100936.31;;;18.90;32.12
69749;BME280;57019;52.354;6.584;2022-12-10T09:04:54;100933.34;;;18.93;32.05
69749;BME280;57019;52.354;6.584;2022-12-10T09:07:20;100936.94;;;19.00;32.06
69749;BME280;57019;52.354;6.584;2022-12-10T09:09:46;100940.00;;;19.04;31.91
69749;BME280;57019;52.354;6.584;2022-12-10T09:12:12;100940.31;;;19.09;32.10
69749;BME280;57019;52.354;6.584;2022-12-10T09:14:38;100941.41;;;19.14;32.11
69749;BME280;57019;52.354;6.584;2022-12-10T09:17:05;100946.16;;;19.11;31.98
69749;BME280;57019;52.354;6.584;2022-12-10T09:19:31;100948.97;;;19.09;32.10
69749;BME280;57019;52.354;6.584;2022-12-10T09:21:56;100952.09;;;19.05;31.91
69749;BME280;57019;52.354;6.584;2022-12-10T09:24:23;100951.00;;;18.99;32.12
69749;BME280;57019;52.354;6.584;2022-12-10T09:26:48;100940.75;;;18.89;32.39
69749;BME280;57019;52.354;6.584;2022-12-10T09:29:14;100938.31;;;18.88;32.42
69749;BME280;57019;52.354;6.584;2022-12-10T09:31:39;100948.41;;;18.91;32.64
69749;BME280;57019;52.354;6.584;2022-12-10T09:34:04;100955.91;;;18.94;32.93
69749;BME280;57019;52.354;6.584;2022-12-10T09:36:30;100958.72;;;18.92;32.93
69749;BME280;57019;52.354;6.584;2022-12-10T09:38:55;100960.81;;;18.97;33.02
69749;BME280;57019;52.354;6.584;2022-12-10T09:43:53;100973.72;;;18.98;33.26
69749;BME280;57019;52.354;6.584;2022-12-10T09:46:31;100972.25;;;19.04;33.05
69749;BME280;57019;52.354;6.584;2022-12-10T09:49:16;100971.53;;;19.10;32.88
69749;BME280;57019;52.354;6.584;2022-12-10T09:51:45;100972.81;;;19.14;32.93
69749;BME280;57019;52.354;6.584;2022-12-10T09:54:26;100981.78;;;19.20;32.97
69749;BME280;57019;52.354;6.584;2022-12-10T09:56:54;100968.53;;;19.22;33.03
69749;BME280;57019;52.354;6.584;2022-12-10T09:59:31;100972.16;;;19.21;32.82
69749;BME280;57019;52.354;6.584;2022-12-10T10:02:26;100967.59;;;19.14;33.07
69749;BME280;57019;52.354;6.584;2022-12-10T10:05:05;100979.38;;;19.10;33.47
69749;BME280;57019;52.354;6.584;2022-12-10T10:07:38;100979.06;;;19.05;33.56
69749;BME280;57019;52.354;6.584;2022-12-10T10:10:28;100982.38;;;18.99;33.19
69749;BME280;57019;52.354;6.584;2022-12-10T10:15:34;100976.81;;;19.02;34.17
69749;BME280;57019;52.354;6.584;2022-12-10T10:20:46;100987.25;;;19.10;34.60
69749;BME280;57019;52.354;6.584;2022-12-10T10:23:14;100988.53;;;19.14;34.49
69749;BME280;57019;52.354;6.584;2022-12-10T10:25:40;100981.63;;;19.22;34.59
69749;BME280;57019;52.354;6.584;2022-12-10T10:28:05;100982.28;;;19.24;34.52
69749;BME280;57019;52.354;6.584;2022-12-10T10:30:31;100980.28;;;19.26;34.53
69749;BME280;57019;52.354;6.584;2022-12-10T10:33:00;100979.47;;;19.25;34.40
69749;BME280;57019;52.354;6.584;2022-12-10T10:35:34;100979.16;;;19.20;34.87
69749;BME280;57019;52.354;6.584;2022-12-10T10:38:14;100968.56;;;19.13;34.81
69749;BME280;57019;52.354;6.584;2022-12-10T10:40:48;100972.25;;;19.04;35.18
69749;BME280;57019;52.354;6.584;2022-12-10T10:43:20;100975.84;;;19.03;35.28
69749;BME280;57019;52.354;6.584;2022-12-10T10:45:53;100992.50;;;19.02;35.12
69749;BME280;57019;52.354;6.584;2022-12-10T10:48:22;100982.03;;;19.02;35.20
69749;BME280;57019;52.354;6.584;2022-12-10T10:51:40;100984.66;;;19.02;35.24
69749;BME280;57019;52.354;6.584;2022-12-10T11:01:48;100983.78;;;19.18;35.17
69749;BME280;57019;52.354;6.584;2022-12-10T11:04:15;100984.88;;;19.24;35.08
69749;BME280;57019;52.354;6.584;2022-12-10T11:06:43;100990.56;;;19.27;35.23
69749;BME280;57019;52.354;6.584;2022-12-10T11:09:20;100996.81;;;19.26;35.21
69749;BME280;57019;52.354;6.584;2022-12-10T11:11:52;100991.09;;;19.23;35.15
69749;BME280;57019;52.354;6.584;2022-12-10T11:17:18;100993.97;;;19.05;35.81
69749;BME280;57019;52.354;6.584;2022-12-10T11:20:29;100992.91;;;18.91;35.39
69749;BME280;57019;52.354;6.584;2022-12-10T11:22:51;100989.94;;;18.86;35.28
69749;BME280;57019;52.354;6.584;2022-12-10T11:25:19;100993.53;;;18.85;35.11
69749;BME280;57019;52.354;6.584;2022-12-10T11:30:38;100990.88;;;19.01;35.33
69749;BME280;57019;52.354;6.584;2022-12-10T11:36:17;100978.88;;;19.15;35.21
69749;BME280;57019;52.354;6.584;2022-12-10T11:44:53;100972.38;;;19.34;35.17
69749;BME280;57019;52.354;6.584;2022-12-10T11:47:35;100972.72;;;19.31;35.38
69749;BME280;57019;52.354;6.584;2022-12-10T11:50:28;100976.38;;;19.22;35.56
69749;BME280;57019;52.354;6.584;2022-12-10T11:53:11;100974.81;;;19.12;35.63
69749;BME280;57019;52.354;6.584;2022-12-10T12:01:52;100972.00;;;18.74;35.73
69749;BME280;57019;52.354;6.584;2022-12-10T12:07:04;100977.56;;;18.71;35.79
69749;BME280;57019;52.354;6.584;2022-12-10T12:12:42;100974.94;;;18.79;35.33
69749;BME280;57019;52.354;6.584;2022-12-10T12:15:17;100977.19;;;18.82;35.44
69749;BME280;57019;52.354;6.584;2022-12-10T12:17:56;100969.97;;;18.85;35.46
69749;BME280;57019;52.354;6.584;2022-12-10T12:20:43;100969.00;;;18.86;35.43
69749;BME280;57019;52.354;6.584;2022-12-10T12:25:51;100971.94;;;18.99;35.73
69749;BME280;57019;52.354;6.584;2022-12-10T12:28:25;100967.59;;;19.14;35.39
69749;BME280;57019;52.354;6.584;2022-12-10T12:31:18;100969.84;;;19.18;35.95
69749;BME280;57019;52.354;6.584;2022-12-10T12:33:51;100974.13;;;19.19;35.81
69749;BME280;57019;52.354;6.584;2022-12-10T12:36:21;100971.81;;;19.24;35.80
69749;BME280;57019;52.354;6.584;2022-12-10T12:39:14;100968.53;;;19.22;35.73
69749;BME280;57019;52.354;6.584;2022-12-10T12:41:50;100969.22;;;19.15;35.70
69749;BME280;57019;52.354;6.584;2022-12-10T12:44:29;100976.41;;;19.13;35.55
69749;BME280;57019;52.354;6.584;2022-12-10T12:49:47;100970.94;;;19.00;35.70
69749;BME280;57019;52.354;6.584;2022-12-10T12:55:04;100967.19;;;18.94;35.94
69749;BME280;57019;52.354;6.584;2022-12-10T12:57:45;100974.53;;;18.99;35.57
69749;BME280;57019;52.354;6.584;2022-12-10T13:00:16;100968.78;;;19.04;35.86
69749;BME280;57019;52.354;6.584;2022-12-10T13:05:50;100978.06;;;19.14;35.33
69749;BME280;57019;52.354;6.584;2022-12-10T13:10:45;100978.41;;;19.11;35.38
69749;BME280;57019;52.354;6.584;2022-12-10T13:13:29;100975.44;;;19.14;35.28
69749;BME280;57019;52.354;6.584;2022-12-10T13:24:19;100975.41;;;19.23;35.35
69749;BME280;57019;52.354;6.584;2022-12-10T13:32:17;100994.91;;;19.12;38.86
69749;BME280;57019;52.354;6.584;2022-12-10T13:34:43;100985.78;;;19.08;38.95
69749;BME280;57019;52.354;6.584;2022-12-10T13:37:30;100988.88;;;19.11;38.57
69749;BME280;57019;52.354;6.584;2022-12-10T13:40:56;100991.81;;;19.17;38.39
69749;BME280;57019;52.354;6.584;2022-12-10T13:42:56;100997.50;;;19.20;38.17
69749;BME280;57019;52.354;6.584;2022-12-10T13:45:41;100996.81;;;19.26;38.30
69749;BME280;57019;52.354;6.584;2022-12-10T13:50:48;101008.09;;;19.27;37.89
69749;BME280;57019;52.354;6.584;2022-12-10T13:58:45;101014.34;;;19.18;37.98
69749;BME280;57019;52.354;6.584;2022-12-10T14:01:25;101012.44;;;19.11;37.89
69749;BME280;57019;52.354;6.584;2022-12-10T14:06:44;101014.91;;;19.05;37.76
69749;BME280;57019;52.354;6.584;2022-12-10T14:11:40;101026.19;;;19.05;37.84
69749;BME280;57019;52.354;6.584;2022-12-10T14:14:16;101024.22;;;19.07;37.72
69749;BME280;57019;52.354;6.584;2022-12-10T14:16:46;101027.81;;;19.06;37.46
69749;BME280;57019;52.354;6.584;2022-12-10T14:19:14;101031.09;;;19.08;37.66
69749;BME280;57019;52.354;6.584;2022-12-10T14:21:41;101028.75;;;19.13;37.61
69749;BME280;57019;52.354;6.584;2022-12-10T14:24:27;101028.44;;;19.17;37.33
69749;BME280;57019;52.354;6.584;2022-12-10T14:27:13;101030.53;;;19.21;37.37
69749;BME280;57019;52.354;6.584;2022-12-10T14:29:51;101027.41;;;19.26;36.99
69749;BME280;57019;52.354;6.584;2022-12-10T14:32:25;101029.19;;;19.33;36.91
69749;BME280;57019;52.354;6.584;2022-12-10T14:34:55;101032.31;;;19.29;37.01
69749;BME280;57019;52.354;6.584;2022-12-10T14:37:25;101038.50;;;19.36;36.78
69749;BME280;57019;52.354;6.584;2022-12-10T14:39:51;101026.03;;;19.38;36.94
69749;BME280;57019;52.354;6.584;2022-12-10T14:42:17;101027.00;;;19.45;37.07
69749;BME280;57019;52.354;6.584;2022-12-10T14:44:43;101029.88;;;19.50;37.07
69749;BME280;57019;52.354;6.584;2022-12-10T14:47:18;101033.53;;;19.49;37.05